createdAt,value
2022-08-22T00:00:57.863Z,15.1
2022-08-22T00:06:03.957Z,15
2022-08-22T00:11:10.048Z,14.9
2022-08-22T00:16:16.145Z,14.8
2022-08-22T00:21:22.243Z,14.8
2022-08-22T00:26:28.325Z,14.8
2022-08-22T00:31:34.427Z,14.6
2022-08-22T00:36:40.509Z,14.6
2022-08-22T00:41:46.612Z,14.6
2022-08-22T00:46:52.691Z,14.6
2022-08-22T00:51:58.800Z,14.4
2022-08-22T00:57:04.889Z,14.4
2022-08-22T01:02:10.986Z,14.4
2022-08-22T01:07:16.094Z,14.3
2022-08-22T01:12:22.194Z,14.3
2022-08-22T01:17:28.304Z,14.3
2022-08-22T01:22:34.388Z,14.3
2022-08-22T01:27:40.476Z,14.2
2022-08-22T01:32:46.572Z,14.1
2022-08-22T01:37:52.673Z,14.1
2022-08-22T01:42:58.756Z,14
2022-08-22T01:48:04.852Z,13.9
2022-08-22T01:53:10.955Z,13.9
2022-08-22T01:58:17.042Z,13.9
2022-08-22T02:03:23.140Z,13.8
2022-08-22T02:08:29.221Z,13.7
2022-08-22T02:13:34.334Z,13.6
2022-08-22T02:18:40.446Z,13.7
2022-08-22T02:23:46.520Z,13.6
2022-08-22T02:28:52.617Z,13.6
2022-08-22T02:33:58.726Z,13.6
2022-08-22T02:39:04.818Z,13.5
2022-08-22T02:49:16.999Z,13.6
2022-08-22T02:54:23.093Z,13.5
2022-08-22T02:59:29.199Z,13.6
2022-08-22T03:04:35.301Z,13.5
2022-08-22T03:09:41.383Z,13.3
2022-08-22T03:14:47.471Z,13.3
2022-08-22T03:19:52.594Z,13.3
2022-08-22T03:24:58.671Z,13.4
2022-08-22T03:30:04.783Z,13.3
2022-08-22T03:35:10.869Z,13.3
2022-08-22T03:40:16.961Z,13.2
2022-08-22T03:45:23.074Z,13.3
2022-08-22T03:50:29.185Z,13.3
2022-08-22T03:55:35.242Z,13.2
2022-08-22T04:00:41.335Z,13.3
2022-08-22T04:05:47.457Z,13.2
2022-08-22T04:10:53.526Z,13.3
2022-08-22T04:15:59.637Z,13.2
2022-08-22T04:21:05.716Z,13.1
2022-08-22T04:26:10.846Z,13.1
2022-08-22T04:31:16.931Z,13.1
2022-08-22T04:36:23.018Z,13.2
2022-08-22T04:41:29.124Z,13.2
2022-08-22T04:46:35.224Z,13.1
2022-08-22T04:51:41.315Z,13
2022-08-22T04:56:47.408Z,13
2022-08-22T05:01:53.495Z,13.1
2022-08-22T05:06:59.596Z,13.1
2022-08-22T05:12:05.687Z,13.3
2022-08-22T05:17:11.784Z,13.4
2022-08-22T05:22:17.902Z,13.6
2022-08-22T05:27:23.988Z,13.8
2022-08-22T05:32:29.097Z,13.9
2022-08-22T05:37:35.190Z,14
2022-08-22T05:47:47.367Z,14.3
2022-08-22T05:52:53.467Z,14.4
2022-08-22T05:57:59.550Z,14.5
2022-08-22T06:03:05.676Z,14.6
2022-08-22T06:08:11.748Z,14.7
2022-08-22T06:13:17.845Z,14.9
2022-08-22T06:18:23.932Z,15
2022-08-22T06:23:30.027Z,15.1
2022-08-22T06:28:36.137Z,15.3
2022-08-22T06:33:42.216Z,15.5
2022-08-22T06:38:47.332Z,15.7
2022-08-22T06:43:53.434Z,15.9
2022-08-22T06:48:59.524Z,16.2
2022-08-22T06:54:05.625Z,16.5
2022-08-22T06:59:11.700Z,16.8
2022-08-22T07:04:17.820Z,17.1
2022-08-22T07:09:23.892Z,17.4
2022-08-22T07:14:29.987Z,17.7
2022-08-22T07:19:36.099Z,18.1
2022-08-22T07:24:42.175Z,18.4
2022-08-22T07:29:48.281Z,18.6
2022-08-22T07:34:54.365Z,18.8
2022-08-22T07:40:00.450Z,19
2022-08-22T07:45:05.592Z,19.1
2022-08-22T07:50:11.677Z,19.3
2022-08-22T07:55:17.757Z,19.6
2022-08-22T08:00:23.876Z,19.8
2022-08-22T08:05:29.941Z,20.2
2022-08-22T08:10:36.035Z,20.5
2022-08-22T08:15:42.150Z,20.8
2022-08-22T08:20:48.237Z,21.1
2022-08-22T08:25:54.305Z,21.4
2022-08-22T08:31:00.418Z,21.7
2022-08-22T08:36:06.525Z,22.2
2022-08-22T08:41:12.589Z,22.8
2022-08-22T08:46:18.697Z,23.9
2022-08-22T08:51:23.797Z,25
2022-08-22T08:56:29.940Z,26.1
2022-08-22T09:01:35.990Z,27
2022-08-22T09:06:42.305Z,27.7
2022-08-22T09:11:48.205Z,28.5
2022-08-22T09:16:54.298Z,29.5
2022-08-22T09:22:00.426Z,29.2
2022-08-22T09:27:06.483Z,29.5
2022-08-22T09:32:12.555Z,29.5
2022-08-22T09:37:18.676Z,30.6
2022-08-22T09:42:24.750Z,30.2
2022-08-22T09:47:30.850Z,30.1
2022-08-22T09:52:36.962Z,28.3
2022-08-22T09:57:42.050Z,29.9
2022-08-22T10:02:48.170Z,31.9
2022-08-22T10:07:54.276Z,33.3
2022-08-22T10:13:00.356Z,33.6
2022-08-22T10:18:06.457Z,30.7
2022-08-22T10:23:12.533Z,28.4
2022-08-22T10:28:18.637Z,26.9
2022-08-22T10:33:24.739Z,26.1
2022-08-22T10:38:30.830Z,25.7
2022-08-22T10:43:36.968Z,26
2022-08-22T10:48:43.009Z,27.4
2022-08-22T10:53:49.112Z,28.2
2022-08-22T10:58:55.217Z,27.1
2022-08-22T11:04:00.315Z,25.7
2022-08-22T11:09:06.441Z,26.2
2022-08-22T11:14:12.506Z,30.9
2022-08-22T11:19:18.602Z,31.8
2022-08-22T11:24:24.692Z,30
2022-08-22T11:29:30.801Z,29.4
2022-08-22T11:34:36.870Z,31.5
2022-08-22T11:39:42.998Z,30.7
2022-08-22T11:44:49.076Z,30.3
2022-08-22T11:49:55.165Z,31.9
2022-08-22T11:55:01.324Z,33.2
2022-08-22T12:00:07.361Z,34.2
2022-08-22T12:05:13.462Z,32.4
2022-08-22T12:10:18.593Z,29.5
2022-08-22T12:15:24.652Z,29.5
2022-08-22T12:20:30.758Z,29.4
2022-08-22T12:25:36.900Z,28.1
2022-08-22T12:30:42.964Z,28.1
2022-08-22T12:35:49.046Z,27.7
2022-08-22T12:40:55.143Z,27.3
2022-08-22T12:46:01.241Z,26.7
2022-08-22T12:51:07.326Z,26.3
2022-08-22T12:56:13.450Z,26.5
2022-08-22T13:01:19.505Z,26.3
2022-08-22T13:06:25.600Z,26.5
2022-08-22T13:11:31.702Z,26.6
2022-08-22T13:16:36.857Z,26.7
2022-08-22T13:21:42.931Z,27
2022-08-22T13:26:49.019Z,26.7
2022-08-22T13:31:55.111Z,26.8
2022-08-22T13:37:01.201Z,26.6
2022-08-22T13:42:07.290Z,26.7
2022-08-22T13:47:13.384Z,26.6
2022-08-22T13:52:19.496Z,26.9
2022-08-22T13:57:25.576Z,26.8
2022-08-22T14:02:31.660Z,27
2022-08-22T14:07:37.776Z,26.9
2022-08-22T14:12:43.851Z,26.8
2022-08-22T14:17:49.993Z,27
2022-08-22T14:22:55.069Z,26.8
2022-08-22T14:28:01.179Z,26.7
2022-08-22T14:33:07.298Z,26.8
2022-08-22T14:38:13.391Z,26.4
2022-08-22T14:43:19.461Z,26.2
2022-08-22T14:48:25.542Z,26.3
2022-08-22T14:53:31.665Z,26.5
2022-08-22T14:58:37.748Z,26.6
2022-08-22T15:03:43.838Z,26.6
2022-08-22T15:08:49.942Z,26.4
2022-08-22T15:13:56.063Z,26.3
2022-08-22T15:19:02.121Z,26.5
2022-08-22T15:24:08.212Z,26.3
2022-08-22T15:29:13.353Z,26.1
2022-08-22T15:34:19.420Z,26.1
2022-08-22T15:39:25.560Z,25.8
2022-08-22T15:44:31.596Z,25.7
2022-08-22T15:49:37.704Z,25.5
2022-08-22T15:54:43.798Z,25.4
2022-08-22T15:59:48.905Z,25.3
2022-08-22T16:04:54.999Z,25.1
2022-08-22T16:10:01.097Z,25.1
2022-08-22T16:15:07.211Z,24.7
2022-08-22T16:20:13.299Z,24.7
2022-08-22T16:25:19.377Z,24.6
2022-08-22T16:30:25.483Z,24.6
2022-08-22T16:35:31.611Z,24.5
2022-08-22T16:40:37.699Z,24.3
2022-08-22T16:45:43.793Z,24.3
2022-08-22T16:50:49.882Z,24.2
2022-08-22T16:55:55.992Z,24.1
2022-08-22T17:01:02.080Z,24
2022-08-22T17:06:07.197Z,23.9
2022-08-22T17:11:13.295Z,23.9
2022-08-22T17:16:19.389Z,23.7
2022-08-22T17:21:25.482Z,23.6
2022-08-22T17:26:31.561Z,23.6
2022-08-22T17:31:37.659Z,23.7
2022-08-22T17:36:43.760Z,23.7
2022-08-22T17:41:49.855Z,23.4
2022-08-22T17:46:55.941Z,23.1
2022-08-22T17:52:02.032Z,23
2022-08-22T17:57:08.124Z,22.8
2022-08-22T18:02:14.233Z,22.7
2022-08-22T18:07:20.320Z,22.4
2022-08-22T18:12:25.437Z,22.3
2022-08-22T18:17:31.527Z,22.1
2022-08-22T18:22:37.621Z,21.9
2022-08-22T18:27:43.719Z,21.6
2022-08-22T18:32:49.818Z,21.3
2022-08-22T18:37:55.903Z,21.3
2022-08-22T18:43:01.995Z,21.2
2022-08-22T18:48:08.103Z,21
2022-08-22T18:53:14.189Z,20.9
2022-08-22T18:58:20.292Z,20.8
2022-08-22T19:03:26.370Z,20.6
2022-08-22T19:08:32.471Z,20.7
2022-08-22T19:13:38.568Z,20.7
2022-08-22T19:18:43.684Z,20.6
2022-08-22T19:23:49.765Z,20.5
2022-08-22T19:28:55.882Z,20.4
2022-08-22T19:34:01.965Z,20.2
2022-08-22T19:39:08.065Z,20.1
2022-08-22T19:44:14.149Z,20
2022-08-22T19:49:20.247Z,19.8
2022-08-22T19:54:26.329Z,19.7
2022-08-22T19:59:32.436Z,19.5
2022-08-22T20:04:38.528Z,19.3
2022-08-22T20:09:44.616Z,19.1
2022-08-22T20:14:50.713Z,18.9
2022-08-22T20:19:56.822Z,18.8
2022-08-22T20:25:01.904Z,18.7
2022-08-22T20:30:08.045Z,18.7
2022-08-22T20:35:14.129Z,18.7
2022-08-22T20:40:20.219Z,18.8
2022-08-22T20:45:26.313Z,18.7
2022-08-22T20:50:32.409Z,18.7
2022-08-22T20:55:38.518Z,18.5
2022-08-22T21:00:44.601Z,18.4
2022-08-22T21:05:50.781Z,18.1
2022-08-22T21:10:56.784Z,18
2022-08-22T21:16:02.886Z,17.8
2022-08-22T21:21:08.972Z,17.7
2022-08-22T21:26:15.059Z,17.6
2022-08-22T21:31:20.190Z,17.6
2022-08-22T21:36:26.272Z,17.6
2022-08-22T21:41:32.365Z,17.6
2022-08-22T21:46:38.481Z,17.5
2022-08-22T21:51:44.576Z,17.5
2022-08-22T21:56:50.651Z,17.4
2022-08-22T22:01:56.749Z,17.3
2022-08-22T22:07:02.847Z,17.3
2022-08-22T22:12:08.953Z,17.2
2022-08-22T22:17:15.022Z,17.2
2022-08-22T22:22:21.132Z,17.1
2022-08-22T22:27:27.224Z,17.1
2022-08-22T22:32:33.320Z,17.1
2022-08-22T22:37:38.428Z,17.1
2022-08-22T22:42:44.514Z,17.1
2022-08-22T22:47:50.624Z,17
2022-08-22T22:52:56.711Z,16.8
2022-08-22T22:58:02.804Z,16.7
2022-08-22T23:03:08.905Z,16.7
2022-08-22T23:08:15.001Z,16.7
2022-08-22T23:13:21.088Z,16.5
2022-08-22T23:18:27.203Z,16.4
2022-08-22T23:23:33.280Z,16.3
2022-08-22T23:28:39.382Z,16.1
2022-08-22T23:33:45.472Z,16
2022-08-22T23:38:51.582Z,15.9
2022-08-22T23:43:56.676Z,15.8
2022-08-22T23:49:02.766Z,15.7
2022-08-22T23:54:08.872Z,15.6
2022-08-22T23:59:14.962Z,15.6
